sensor_id;sensor_type;location;lat;lon;timestamp;P1;durP1;ratioP1;P2;durP2;ratioP2
25627;SDS011;40915;50.826;4.356;2023-01-20T00:00:40;41.63;;;18.83;;
25627;SDS011;40915;50.826;4.356;2023-01-20T00:03:05;37.37;;;18.80;;
25627;SDS011;40915;50.826;4.356;2023-01-20T00:05:31;38.90;;;20.27;;
25627;SDS011;40915;50.826;4.356;2023-01-20T00:07:57;41.13;;;19.77;;
25627;SDS011;40915;50.826;4.356;2023-01-20T00:10:22;38.40;;;20.33;;
25627;SDS011;40915;50.826;4.356;2023-01-20T00:12:48;44.00;;;20.67;;
25627;SDS011;40915;50.826;4.356;2023-01-20T00:15:14;39.07;;;18.67;;
25627;SDS011;40915;50.826;4.356;2023-01-20T00:17:39;41.40;;;19.63;;
25627;SDS011;40915;50.826;4.356;2023-01-20T00:20:05;43.53;;;20.33;;
25627;SDS011;40915;50.826;4.356;2023-01-20T00:22:31;43.40;;;20.97;;
25627;SDS011;40915;50.826;4.356;2023-01-20T00:24:58;43.27;;;21.13;;
25627;SDS011;40915;50.826;4.356;2023-01-20T00:27:23;44.70;;;20.63;;
25627;SDS011;40915;50.826;4.356;2023-01-20T00:29:49;40.40;;;20.03;;
25627;SDS011;40915;50.826;4.356;2023-01-20T00:32:15;40.63;;;19.50;;
25627;SDS011;40915;50.826;4.356;2023-01-20T00:34:40;43.37;;;19.73;;
25627;SDS011;40915;50.826;4.356;2023-01-20T00:37:06;43.63;;;19.70;;
25627;SDS011;40915;50.826;4.356;2023-01-20T00:39:31;39.00;;;19.43;;
25627;SDS011;40915;50.826;4.356;2023-01-20T00:41:57;38.50;;;19.30;;
25627;SDS011;40915;50.826;4.356;2023-01-20T00:44:23;42.10;;;19.67;;
25627;SDS011;40915;50.826;4.356;2023-01-20T00:46:48;40.30;;;19.57;;
25627;SDS011;40915;50.826;4.356;2023-01-20T00:49:14;41.43;;;19.07;;
25627;SDS011;40915;50.826;4.356;2023-01-20T00:51:39;37.83;;;18.60;;
25627;SDS011;40915;50.826;4.356;2023-01-20T00:54:05;37.57;;;16.90;;
25627;SDS011;40915;50.826;4.356;2023-01-20T00:56:30;37.43;;;18.17;;
25627;SDS011;40915;50.826;4.356;2023-01-20T00:58:56;36.30;;;16.83;;
25627;SDS011;40915;50.826;4.356;2023-01-20T01:01:22;38.50;;;17.53;;
25627;SDS011;40915;50.826;4.356;2023-01-20T01:03:48;33.37;;;16.80;;
25627;SDS011;40915;50.826;4.356;2023-01-20T01:06:17;33.83;;;16.83;;
25627;SDS011;40915;50.826;4.356;2023-01-20T01:08:43;39.17;;;17.83;;
25627;SDS011;40915;50.826;4.356;2023-01-20T01:11:09;39.20;;;18.33;;
25627;SDS011;40915;50.826;4.356;2023-01-20T01:13:35;36.20;;;17.67;;
25627;SDS011;40915;50.826;4.356;2023-01-20T01:16:03;36.90;;;18.20;;
25627;SDS011;40915;50.826;4.356;2023-01-20T01:18:32;37.50;;;17.23;;
25627;SDS011;40915;50.826;4.356;2023-01-20T01:20:57;41.17;;;17.80;;
25627;SDS011;40915;50.826;4.356;2023-01-20T01:23:23;35.93;;;17.07;;
25627;SDS011;40915;50.826;4.356;2023-01-20T01:25:48;35.37;;;16.33;;
25627;SDS011;40915;50.826;4.356;2023-01-20T01:28:14;37.93;;;16.83;;
25627;SDS011;40915;50.826;4.356;2023-01-20T01:30:40;38.23;;;17.03;;
25627;SDS011;40915;50.826;4.356;2023-01-20T01:33:05;36.07;;;17.47;;
25627;SDS011;40915;50.826;4.356;2023-01-20T01:35:31;35.33;;;16.23;;
25627;SDS011;40915;50.826;4.356;2023-01-20T01:37:56;35.10;;;17.57;;
25627;SDS011;40915;50.826;4.356;2023-01-20T01:40:23;38.17;;;17.93;;
25627;SDS011;40915;50.826;4.356;2023-01-20T01:42:49;37.97;;;17.47;;
25627;SDS011;40915;50.826;4.356;2023-01-20T01:45:19;37.93;;;16.87;;
25627;SDS011;40915;50.826;4.356;2023-01-20T01:47:48;36.87;;;16.93;;
25627;SDS011;40915;50.826;4.356;2023-01-20T01:50:25;39.33;;;17.07;;
25627;SDS011;40915;50.826;4.356;2023-01-20T01:53:02;34.97;;;16.93;;
25627;SDS011;40915;50.826;4.356;2023-01-20T01:55:29;33.33;;;17.27;;
25627;SDS011;40915;50.826;4.356;2023-01-20T01:57:59;37.33;;;18.30;;
25627;SDS011;40915;50.826;4.356;2023-01-20T02:00:26;34.13;;;17.27;;
25627;SDS011;40915;50.826;4.356;2023-01-20T02:02:52;38.80;;;18.63;;
25627;SDS011;40915;50.826;4.356;2023-01-20T02:05:19;36.53;;;18.13;;
25627;SDS011;40915;50.826;4.356;2023-01-20T02:07:47;44.30;;;18.33;;
25627;SDS011;40915;50.826;4.356;2023-01-20T02:10:14;43.70;;;18.97;;
25627;SDS011;40915;50.826;4.356;2023-01-20T02:12:40;38.13;;;17.57;;
25627;SDS011;40915;50.826;4.356;2023-01-20T02:15:07;37.97;;;17.30;;
25627;SDS011;40915;50.826;4.356;2023-01-20T02:23:15;38.80;;;17.30;;
25627;SDS011;40915;50.826;4.356;2023-01-20T02:26:10;33.03;;;16.97;;
25627;SDS011;40915;50.826;4.356;2023-01-20T02:36:57;37.27;;;17.37;;
25627;SDS011;40915;50.826;4.356;2023-01-20T02:39:34;37.77;;;17.50;;
25627;SDS011;40915;50.826;4.356;2023-01-20T02:44:49;36.40;;;17.57;;
25627;SDS011;40915;50.826;4.356;2023-01-20T02:47:29;36.57;;;17.30;;
25627;SDS011;40915;50.826;4.356;2023-01-20T02:50:22;41.13;;;17.77;;
25627;SDS011;40915;50.826;4.356;2023-01-20T02:53:00;34.97;;;17.23;;
25627;SDS011;40915;50.826;4.356;2023-01-20T02:55:35;36.73;;;17.43;;
25627;SDS011;40915;50.826;4.356;2023-01-20T02:58:11;39.40;;;18.13;;
25627;SDS011;40915;50.826;4.356;2023-01-20T03:00:44;36.10;;;17.70;;
25627;SDS011;40915;50.826;4.356;2023-01-20T03:03:15;34.53;;;16.90;;
25627;SDS011;40915;50.826;4.356;2023-01-20T03:05:47;34.97;;;16.83;;
25627;SDS011;40915;50.826;4.356;2023-01-20T03:08:16;34.30;;;16.83;;
25627;SDS011;40915;50.826;4.356;2023-01-20T03:10:44;35.50;;;17.53;;
25627;SDS011;40915;50.826;4.356;2023-01-20T03:13:57;40.77;;;18.77;;
25627;SDS011;40915;50.826;4.356;2023-01-20T03:16:05;37.57;;;17.50;;
25627;SDS011;40915;50.826;4.356;2023-01-20T03:18:34;36.03;;;17.70;;
25627;SDS011;40915;50.826;4.356;2023-01-20T03:21:01;36.13;;;17.80;;
25627;SDS011;40915;50.826;4.356;2023-01-20T03:23:30;42.00;;;18.70;;
25627;SDS011;40915;50.826;4.356;2023-01-20T03:25:59;34.23;;;17.83;;
25627;SDS011;40915;50.826;4.356;2023-01-20T03:28:30;41.10;;;19.77;;
25627;SDS011;40915;50.826;4.356;2023-01-20T03:30:56;34.87;;;17.97;;
25627;SDS011;40915;50.826;4.356;2023-01-20T03:33:22;38.63;;;18.13;;
25627;SDS011;40915;50.826;4.356;2023-01-20T03:35:49;37.37;;;18.27;;
25627;SDS011;40915;50.826;4.356;2023-01-20T03:38:16;40.17;;;18.87;;
25627;SDS011;40915;50.826;4.356;2023-01-20T03:40:45;36.17;;;19.17;;
25627;SDS011;40915;50.826;4.356;2023-01-20T03:43:23;39.80;;;20.03;;
25627;SDS011;40915;50.826;4.356;2023-01-20T03:45:59;40.67;;;19.00;;
25627;SDS011;40915;50.826;4.356;2023-01-20T03:48:33;38.77;;;18.67;;
25627;SDS011;40915;50.826;4.356;2023-01-20T03:54:00;39.23;;;18.93;;
25627;SDS011;40915;50.826;4.356;2023-01-20T03:59:05;39.93;;;18.70;;
25627;SDS011;40915;50.826;4.356;2023-01-20T04:01:35;33.83;;;17.80;;
25627;SDS011;40915;50.826;4.356;2023-01-20T04:04:03;35.97;;;17.27;;
25627;SDS011;40915;50.826;4.356;2023-01-20T04:06:32;33.23;;;17.77;;
25627;SDS011;40915;50.826;4.356;2023-01-20T04:09:04;37.67;;;18.27;;
25627;SDS011;40915;50.826;4.356;2023-01-20T04:11:33;35.40;;;17.63;;
25627;SDS011;40915;50.826;4.356;2023-01-20T04:13:58;35.27;;;17.53;;
25627;SDS011;40915;50.826;4.356;2023-01-20T04:16:24;36.83;;;18.03;;
25627;SDS011;40915;50.826;4.356;2023-01-20T04:18:51;37.47;;;17.80;;
25627;SDS011;40915;50.826;4.356;2023-01-20T04:21:26;38.40;;;17.73;;
25627;SDS011;40915;50.826;4.356;2023-01-20T04:24:02;36.73;;;18.10;;
25627;SDS011;40915;50.826;4.356;2023-01-20T04:26:33;36.83;;;18.00;;
25627;SDS011;40915;50.826;4.356;2023-01-20T04:28:59;38.27;;;18.27;;
25627;SDS011;40915;50.826;4.356;2023-01-20T04:31:32;35.00;;;17.37;;
25627;SDS011;40915;50.826;4.356;2023-01-20T04:33:58;33.33;;;17.50;;
25627;SDS011;40915;50.826;4.356;2023-01-20T04:36:24;37.60;;;18.27;;
25627;SDS011;40915;50.826;4.356;2023-01-20T04:38:49;35.73;;;17.00;;
25627;SDS011;40915;50.826;4.356;2023-01-20T04:41:15;37.07;;;17.13;;
25627;SDS011;40915;50.826;4.356;2023-01-20T04:43:44;36.63;;;17.33;;
25627;SDS011;40915;50.826;4.356;2023-01-20T04:46:11;34.13;;;17.20;;
25627;SDS011;40915;50.826;4.356;2023-01-20T04:48:37;32.60;;;17.50;;
25627;SDS011;40915;50.826;4.356;2023-01-20T04:51:03;38.97;;;17.60;;
25627;SDS011;40915;50.826;4.356;2023-01-20T04:53:29;35.23;;;18.17;;
25627;SDS011;40915;50.826;4.356;2023-01-20T04:55:55;33.47;;;17.93;;
25627;SDS011;40915;50.826;4.356;2023-01-20T04:58:20;36.13;;;16.80;;
25627;SDS011;40915;50.826;4.356;2023-01-20T05:00:46;33.60;;;17.50;;
25627;SDS011;40915;50.826;4.356;2023-01-20T05:03:11;34.73;;;16.90;;
25627;SDS011;40915;50.826;4.356;2023-01-20T05:05:37;37.30;;;17.83;;
25627;SDS011;40915;50.826;4.356;2023-01-20T05:08:02;33.70;;;18.17;;
25627;SDS011;40915;50.826;4.356;2023-01-20T05:10:29;38.10;;;18.87;;
25627;SDS011;40915;50.826;4.356;2023-01-20T05:12:56;39.27;;;18.87;;
25627;SDS011;40915;50.826;4.356;2023-01-20T05:15:22;37.60;;;18.50;;
25627;SDS011;40915;50.826;4.356;2023-01-20T05:17:48;38.57;;;18.40;;
25627;SDS011;40915;50.826;4.356;2023-01-20T05:20:13;40.47;;;18.57;;
25627;SDS011;40915;50.826;4.356;2023-01-20T05:22:39;34.60;;;18.23;;
25627;SDS011;40915;50.826;4.356;2023-01-20T05:25:05;35.80;;;17.93;;
25627;SDS011;40915;50.826;4.356;2023-01-20T05:27:34;34.53;;;18.57;;
25627;SDS011;40915;50.826;4.356;2023-01-20T05:30:00;35.63;;;17.97;;
25627;SDS011;40915;50.826;4.356;2023-01-20T05:32:26;38.43;;;18.93;;
25627;SDS011;40915;50.826;4.356;2023-01-20T05:34:52;35.20;;;18.53;;
25627;SDS011;40915;50.826;4.356;2023-01-20T05:37:17;39.13;;;18.77;;
25627;SDS011;40915;50.826;4.356;2023-01-20T05:39:43;36.13;;;19.80;;
25627;SDS011;40915;50.826;4.356;2023-01-20T05:42:08;37.50;;;18.37;;
25627;SDS011;40915;50.826;4.356;2023-01-20T05:44:34;41.90;;;18.83;;
25627;SDS011;40915;50.826;4.356;2023-01-20T05:47:00;37.27;;;19.13;;
25627;SDS011;40915;50.826;4.356;2023-01-20T05:49:26;33.67;;;18.23;;
25627;SDS011;40915;50.826;4.356;2023-01-20T05:51:52;37.43;;;18.63;;
25627;SDS011;40915;50.826;4.356;2023-01-20T05:54:32;38.70;;;18.47;;
25627;SDS011;40915;50.826;4.356;2023-01-20T05:56:58;38.83;;;18.73;;
25627;SDS011;40915;50.826;4.356;2023-01-20T05:59:24;40.13;;;19.37;;
25627;SDS011;40915;50.826;4.356;2023-01-20T06:01:49;34.93;;;18.90;;
25627;SDS011;40915;50.826;4.356;2023-01-20T06:04:15;38.60;;;19.17;;
25627;SDS011;40915;50.826;4.356;2023-01-20T06:06:40;35.33;;;16.93;;
25627;SDS011;40915;50.826;4.356;2023-01-20T06:09:06;37.00;;;17.97;;
25627;SDS011;40915;50.826;4.356;2023-01-20T06:11:34;31.73;;;17.53;;
25627;SDS011;40915;50.826;4.356;2023-01-20T06:14:00;32.97;;;18.67;;
25627;SDS011;40915;50.826;4.356;2023-01-20T06:16:26;32.03;;;18.40;;
25627;SDS011;40915;50.826;4.356;2023-01-20T06:18:51;35.97;;;18.33;;
25627;SDS011;40915;50.826;4.356;2023-01-20T06:21:17;33.83;;;18.53;;
25627;SDS011;40915;50.826;4.356;2023-01-20T06:23:42;31.83;;;17.50;;
25627;SDS011;40915;50.826;4.356;2023-01-20T06:26:10;34.30;;;18.13;;
25627;SDS011;40915;50.826;4.356;2023-01-20T06:28:37;33.53;;;17.50;;
25627;SDS011;40915;50.826;4.356;2023-01-20T06:31:10;38.50;;;19.00;;
25627;SDS011;40915;50.826;4.356;2023-01-20T06:33:37;38.37;;;19.97;;
25627;SDS011;40915;50.826;4.356;2023-01-20T06:36:03;34.40;;;19.70;;
25627;SDS011;40915;50.826;4.356;2023-01-20T06:38:31;37.47;;;20.07;;
25627;SDS011;40915;50.826;4.356;2023-01-20T06:41:02;34.93;;;18.80;;
25627;SDS011;40915;50.826;4.356;2023-01-20T06:43:29;35.07;;;18.73;;
25627;SDS011;40915;50.826;4.356;2023-01-20T06:45:59;34.60;;;18.80;;
25627;SDS011;40915;50.826;4.356;2023-01-20T06:48:25;38.37;;;19.60;;
25627;SDS011;40915;50.826;4.356;2023-01-20T06:50:51;40.90;;;20.00;;
25627;SDS011;40915;50.826;4.356;2023-01-20T06:53:16;32.70;;;18.33;;
25627;SDS011;40915;50.826;4.356;2023-01-20T06:55:42;32.00;;;18.00;;
25627;SDS011;40915;50.826;4.356;2023-01-20T06:58:07;36.00;;;20.07;;
25627;SDS011;40915;50.826;4.356;2023-01-20T07:00:33;37.53;;;19.60;;
25627;SDS011;40915;50.826;4.356;2023-01-20T07:02:58;37.37;;;19.60;;
25627;SDS011;40915;50.826;4.356;2023-01-20T07:05:24;34.73;;;18.53;;
25627;SDS011;40915;50.826;4.356;2023-01-20T07:07:50;35.13;;;19.53;;
25627;SDS011;40915;50.826;4.356;2023-01-20T07:10:15;38.33;;;18.97;;
25627;SDS011;40915;50.826;4.356;2023-01-20T07:12:41;33.53;;;17.80;;
25627;SDS011;40915;50.826;4.356;2023-01-20T07:15:07;38.43;;;19.30;;
25627;SDS011;40915;50.826;4.356;2023-01-20T07:17:32;33.50;;;18.23;;
25627;SDS011;40915;50.826;4.356;2023-01-20T07:19:58;36.20;;;17.57;;
25627;SDS011;40915;50.826;4.356;2023-01-20T07:22:24;33.37;;;18.43;;
25627;SDS011;40915;50.826;4.356;2023-01-20T07:24:49;33.83;;;17.63;;
25627;SDS011;40915;50.826;4.356;2023-01-20T07:27:15;33.83;;;17.90;;
25627;SDS011;40915;50.826;4.356;2023-01-20T07:29:40;30.23;;;16.40;;
25627;SDS011;40915;50.826;4.356;2023-01-20T07:32:06;29.23;;;16.93;;
25627;SDS011;40915;50.826;4.356;2023-01-20T07:34:31;37.03;;;17.17;;
25627;SDS011;40915;50.826;4.356;2023-01-20T07:36:57;32.70;;;17.53;;
25627;SDS011;40915;50.826;4.356;2023-01-20T07:39:27;35.03;;;17.47;;
25627;SDS011;40915;50.826;4.356;2023-01-20T07:41:53;32.33;;;17.30;;
25627;SDS011;40915;50.826;4.356;2023-01-20T07:44:19;31.73;;;16.50;;
25627;SDS011;40915;50.826;4.356;2023-01-20T07:46:45;33.90;;;17.33;;
25627;SDS011;40915;50.826;4.356;2023-01-20T07:49:10;33.40;;;17.23;;
25627;SDS011;40915;50.826;4.356;2023-01-20T07:51:36;36.03;;;18.13;;
25627;SDS011;40915;50.826;4.356;2023-01-20T07:54:03;35.33;;;17.90;;
25627;SDS011;40915;50.826;4.356;2023-01-20T07:56:29;32.80;;;17.10;;
25627;SDS011;40915;50.826;4.356;2023-01-20T07:58:55;32.00;;;17.87;;
25627;SDS011;40915;50.826;4.356;2023-01-20T08:01:25;31.33;;;16.50;;
25627;SDS011;40915;50.826;4.356;2023-01-20T08:03:52;29.60;;;15.93;;
25627;SDS011;40915;50.826;4.356;2023-01-20T08:06:19;30.47;;;16.10;;
25627;SDS011;40915;50.826;4.356;2023-01-20T08:08:46;27.83;;;16.17;;
25627;SDS011;40915;50.826;4.356;2023-01-20T08:11:13;30.10;;;15.67;;
25627;SDS011;40915;50.826;4.356;2023-01-20T08:13:40;31.17;;;16.13;;
25627;SDS011;40915;50.826;4.356;2023-01-20T08:16:07;28.37;;;15.73;;
25627;SDS011;40915;50.826;4.356;2023-01-20T08:18:34;30.47;;;14.90;;
25627;SDS011;40915;50.826;4.356;2023-01-20T08:21:00;27.67;;;16.10;;
25627;SDS011;40915;50.826;4.356;2023-01-20T08:23:30;31.33;;;18.43;;
25627;SDS011;40915;50.826;4.356;2023-01-20T08:26:00;26.83;;;15.57;;
25627;SDS011;40915;50.826;4.356;2023-01-20T08:28:29;27.57;;;14.97;;
25627;SDS011;40915;50.826;4.356;2023-01-20T08:31:01;28.17;;;15.90;;
25627;SDS011;40915;50.826;4.356;2023-01-20T08:33:32;28.50;;;14.43;;
25627;SDS011;40915;50.826;4.356;2023-01-20T08:36:07;23.23;;;13.90;;
25627;SDS011;40915;50.826;4.356;2023-01-20T08:38:35;26.00;;;13.83;;
25627;SDS011;40915;50.826;4.356;2023-01-20T08:41:06;28.43;;;14.17;;
25627;SDS011;40915;50.826;4.356;2023-01-20T08:43:32;24.60;;;15.00;;
25627;SDS011;40915;50.826;4.356;2023-01-20T08:45:58;26.73;;;13.67;;
25627;SDS011;40915;50.826;4.356;2023-01-20T08:48:26;24.73;;;14.63;;
25627;SDS011;40915;50.826;4.356;2023-01-20T08:50:52;25.53;;;14.13;;
25627;SDS011;40915;50.826;4.356;2023-01-20T08:53:17;24.30;;;13.90;;
25627;SDS011;40915;50.826;4.356;2023-01-20T08:55:53;23.50;;;13.43;;
25627;SDS011;40915;50.826;4.356;2023-01-20T08:58:20;20.97;;;12.77;;
25627;SDS011;40915;50.826;4.356;2023-01-20T09:00:45;23.73;;;13.23;;
25627;SDS011;40915;50.826;4.356;2023-01-20T09:03:11;25.80;;;13.50;;
25627;SDS011;40915;50.826;4.356;2023-01-20T09:05:36;23.07;;;12.80;;
25627;SDS011;40915;50.826;4.356;2023-01-20T09:08:02;25.73;;;13.67;;
25627;SDS011;40915;50.826;4.356;2023-01-20T09:10:30;23.60;;;13.20;;
25627;SDS011;40915;50.826;4.356;2023-01-20T09:12:56;19.10;;;12.57;;
25627;SDS011;40915;50.826;4.356;2023-01-20T09:15:22;22.83;;;12.77;;
25627;SDS011;40915;50.826;4.356;2023-01-20T09:17:47;19.33;;;11.67;;
25627;SDS011;40915;50.826;4.356;2023-01-20T09:20:13;18.37;;;12.03;;
25627;SDS011;40915;50.826;4.356;2023-01-20T09:22:39;20.30;;;11.97;;
25627;SDS011;40915;50.826;4.356;2023-01-20T09:25:05;25.60;;;12.63;;
25627;SDS011;40915;50.826;4.356;2023-01-20T09:27:33;22.63;;;12.87;;
25627;SDS011;40915;50.826;4.356;2023-01-20T09:29:59;23.13;;;12.77;;
25627;SDS011;40915;50.826;4.356;2023-01-20T09:32:24;21.00;;;12.57;;
25627;SDS011;40915;50.826;4.356;2023-01-20T09:34:51;24.63;;;12.37;;
25627;SDS011;40915;50.826;4.356;2023-01-20T09:37:16;20.73;;;11.33;;
25627;SDS011;40915;50.826;4.356;2023-01-20T09:40:01;22.70;;;11.30;;
25627;SDS011;40915;50.826;4.356;2023-01-20T09:45:53;18.03;;;10.30;;
25627;SDS011;40915;50.826;4.356;2023-01-20T09:51:23;21.50;;;10.80;;
25627;SDS011;40915;50.826;4.356;2023-01-20T09:54:21;18.47;;;10.20;;
25627;SDS011;40915;50.826;4.356;2023-01-20T09:56:49;20.73;;;10.33;;
25627;SDS011;40915;50.826;4.356;2023-01-20T09:59:38;22.80;;;10.67;;
25627;SDS011;40915;50.826;4.356;2023-01-20T10:02:26;17.17;;;9.90;;
25627;SDS011;40915;50.826;4.356;2023-01-20T10:04:58;20.20;;;9.80;;
25627;SDS011;40915;50.826;4.356;2023-01-20T10:10:05;23.30;;;10.73;;
25627;SDS011;40915;50.826;4.356;2023-01-20T10:12:49;18.90;;;9.83;;
25627;SDS011;40915;50.826;4.356;2023-01-20T10:15:35;18.03;;;9.57;;
25627;SDS011;40915;50.826;4.356;2023-01-20T10:20:39;22.27;;;10.33;;
25627;SDS011;40915;50.826;4.356;2023-01-20T10:23:27;19.07;;;9.47;;
25627;SDS011;40915;50.826;4.356;2023-01-20T10:28:52;15.60;;;8.50;;
25627;SDS011;40915;50.826;4.356;2023-01-20T10:31:25;16.10;;;9.23;;
25627;SDS011;40915;50.826;4.356;2023-01-20T10:33:53;18.17;;;10.37;;
25627;SDS011;40915;50.826;4.356;2023-01-20T10:36:24;16.50;;;9.30;;
25627;SDS011;40915;50.826;4.356;2023-01-20T10:43:55;16.37;;;9.40;;
25627;SDS011;40915;50.826;4.356;2023-01-20T10:46:40;17.73;;;8.90;;
25627;SDS011;40915;50.826;4.356;2023-01-20T10:52:18;17.80;;;8.80;;
25627;SDS011;40915;50.826;4.356;2023-01-20T10:58:20;14.20;;;7.87;;
25627;SDS011;40915;50.826;4.356;2023-01-20T11:00:53;17.17;;;9.63;;
25627;SDS011;40915;50.826;4.356;2023-01-20T11:03:20;19.60;;;8.43;;
25627;SDS011;40915;50.826;4.356;2023-01-20T11:05:47;15.80;;;8.03;;
25627;SDS011;40915;50.826;4.356;2023-01-20T11:08:15;16.30;;;8.63;;
25627;SDS011;40915;50.826;4.356;2023-01-20T11:10:45;16.03;;;8.13;;
25627;SDS011;40915;50.826;4.356;2023-01-20T11:13:13;13.27;;;8.23;;
25627;SDS011;40915;50.826;4.356;2023-01-20T11:15:45;13.70;;;7.83;;
25627;SDS011;40915;50.826;4.356;2023-01-20T11:20:44;15.47;;;7.83;;
25627;SDS011;40915;50.826;4.356;2023-01-20T11:26:01;16.60;;;7.80;;
25627;SDS011;40915;50.826;4.356;2023-01-20T11:28:36;15.40;;;7.50;;
25627;SDS011;40915;50.826;4.356;2023-01-20T11:31:16;20.00;;;7.87;;
25627;SDS011;40915;50.826;4.356;2023-01-20T11:36:40;14.63;;;6.80;;
25627;SDS011;40915;50.826;4.356;2023-01-20T11:39:21;14.90;;;7.63;;
25627;SDS011;40915;50.826;4.356;2023-01-20T11:42:09;17.03;;;7.67;;
25627;SDS011;40915;50.826;4.356;2023-01-20T11:45:02;14.47;;;6.70;;
25627;SDS011;40915;50.826;4.356;2023-01-20T11:47:29;15.00;;;7.40;;
25627;SDS011;40915;50.826;4.356;2023-01-20T11:52:34;14.03;;;6.53;;
25627;SDS011;40915;50.826;4.356;2023-01-20T11:55:08;14.37;;;6.70;;
25627;SDS011;40915;50.826;4.356;2023-01-20T11:57:43;15.70;;;7.20;;
25627;SDS011;40915;50.826;4.356;2023-01-20T12:08:20;12.43;;;6.73;;
25627;SDS011;40915;50.826;4.356;2023-01-20T12:10:55;14.07;;;6.73;;
25627;SDS011;40915;50.826;4.356;2023-01-20T12:13:27;13.73;;;6.77;;
25627;SDS011;40915;50.826;4.356;2023-01-20T12:16:20;13.43;;;6.70;;
25627;SDS011;40915;50.826;4.356;2023-01-20T12:18:50;14.07;;;6.50;;
25627;SDS011;40915;50.826;4.356;2023-01-20T12:21:18;12.90;;;6.90;;
25627;SDS011;40915;50.826;4.356;2023-01-20T12:26:35;13.23;;;6.30;;
25627;SDS011;40915;50.826;4.356;2023-01-20T12:29:06;13.93;;;6.80;;
25627;SDS011;40915;50.826;4.356;2023-01-20T12:31:55;14.80;;;6.73;;
25627;SDS011;40915;50.826;4.356;2023-01-20T12:34:27;12.30;;;6.70;;
25627;SDS011;40915;50.826;4.356;2023-01-20T12:37:55;18.07;;;7.20;;
25627;SDS011;40915;50.826;4.356;2023-01-20T12:54:21;17.63;;;5.93;;
25627;SDS011;40915;50.826;4.356;2023-01-20T12:59:45;13.97;;;5.83;;
25627;SDS011;40915;50.826;4.356;2023-01-20T13:08:30;11.70;;;5.63;;
25627;SDS011;40915;50.826;4.356;2023-01-20T13:14:36;10.93;;;5.37;;
25627;SDS011;40915;50.826;4.356;2023-01-20T13:17:41;13.03;;;4.90;;
25627;SDS011;40915;50.826;4.356;2023-01-20T13:20:27;9.93;;;5.40;;
25627;SDS011;40915;50.826;4.356;2023-01-20T13:22:54;15.27;;;5.57;;
25627;SDS011;40915;50.826;4.356;2023-01-20T13:25:22;13.77;;;5.67;;
25627;SDS011;40915;50.826;4.356;2023-01-20T13:27:48;13.40;;;5.07;;
25627;SDS011;40915;50.826;4.356;2023-01-20T13:33:03;18.97;;;4.77;;
25627;SDS011;40915;50.826;4.356;2023-01-20T13:37:57;10.10;;;5.07;;
25627;SDS011;40915;50.826;4.356;2023-01-20T13:45:28;9.73;;;4.50;;
25627;SDS011;40915;50.826;4.356;2023-01-20T13:50:34;9.00;;;4.53;;
25627;SDS011;40915;50.826;4.356;2023-01-20T14:00:43;9.13;;;4.93;;
25627;SDS011;40915;50.826;4.356;2023-01-20T14:08:28;12.37;;;4.70;;
25627;SDS011;40915;50.826;4.356;2023-01-20T14:11:09;11.50;;;5.50;;
25627;SDS011;40915;50.826;4.356;2023-01-20T14:13:36;12.90;;;5.00;;
25627;SDS011;40915;50.826;4.356;2023-01-20T14:16:02;18.50;;;5.53;;
25627;SDS011;40915;50.826;4.356;2023-01-20T14:18:28;16.07;;;5.37;;
25627;SDS011;40915;50.826;4.356;2023-01-20T14:20:55;14.53;;;5.37;;
25627;SDS011;40915;50.826;4.356;2023-01-20T14:23:33;16.07;;;4.77;;
25627;SDS011;40915;50.826;4.356;2023-01-20T14:26:05;13.20;;;5.80;;
25627;SDS011;40915;50.826;4.356;2023-01-20T14:28:33;13.10;;;5.73;;
25627;SDS011;40915;50.826;4.356;2023-01-20T14:31:09;11.00;;;5.03;;
25627;SDS011;40915;50.826;4.356;2023-01-20T14:33:47;13.27;;;4.80;;
25627;SDS011;40915;50.826;4.356;2023-01-20T14:36:14;9.70;;;4.40;;
25627;SDS011;40915;50.826;4.356;2023-01-20T14:38:41;11.10;;;3.77;;
25627;SDS011;40915;50.826;4.356;2023-01-20T14:41:23;12.20;;;3.67;;
25627;SDS011;40915;50.826;4.356;2023-01-20T14:43:56;10.40;;;3.83;;
25627;SDS011;40915;50.826;4.356;2023-01-20T14:46:23;5.87;;;2.43;;
25627;SDS011;40915;50.826;4.356;2023-01-20T14:48:50;8.20;;;2.50;;
25627;SDS011;40915;50.826;4.356;2023-01-20T14:51:17;9.53;;;2.90;;
25627;SDS011;40915;50.826;4.356;2023-01-20T14:53:44;10.67;;;3.37;;
25627;SDS011;40915;50.826;4.356;2023-01-20T14:56:28;10.63;;;3.57;;
25627;SDS011;40915;50.826;4.356;2023-01-20T14:58:54;9.67;;;3.30;;
25627;SDS011;40915;50.826;4.356;2023-01-20T15:01:22;7.17;;;2.97;;
25627;SDS011;40915;50.826;4.356;2023-01-20T15:03:53;9.47;;;3.03;;
25627;SDS011;40915;50.826;4.356;2023-01-20T15:06:23;7.27;;;2.73;;
25627;SDS011;40915;50.826;4.356;2023-01-20T15:08:50;7.53;;;2.70;;
25627;SDS011;40915;50.826;4.356;2023-01-20T15:11:18;7.00;;;2.60;;
25627;SDS011;40915;50.826;4.356;2023-01-20T15:21:38;6.20;;;2.57;;
25627;SDS011;40915;50.826;4.356;2023-01-20T15:24:12;6.00;;;3.07;;
25627;SDS011;40915;50.826;4.356;2023-01-20T15:26:44;7.93;;;3.17;;
25627;SDS011;40915;50.826;4.356;2023-01-20T15:29:30;11.93;;;3.10;;
25627;SDS011;40915;50.826;4.356;2023-01-20T15:31:59;7.50;;;3.10;;
25627;SDS011;40915;50.826;4.356;2023-01-20T15:34:34;7.60;;;2.57;;
25627;SDS011;40915;50.826;4.356;2023-01-20T15:37:00;9.20;;;3.30;;
25627;SDS011;40915;50.826;4.356;2023-01-20T15:39:26;10.00;;;3.33;;
25627;SDS011;40915;50.826;4.356;2023-01-20T15:41:58;8.43;;;2.90;;
25627;SDS011;40915;50.826;4.356;2023-01-20T15:44:25;10.30;;;2.97;;
25627;SDS011;40915;50.826;4.356;2023-01-20T15:46:52;12.33;;;3.20;;
25627;SDS011;40915;50.826;4.356;2023-01-20T15:49:19;11.17;;;2.73;;
25627;SDS011;40915;50.826;4.356;2023-01-20T15:51:45;8.37;;;3.17;;
25627;SDS011;40915;50.826;4.356;2023-01-20T15:54:11;11.33;;;4.23;;
25627;SDS011;40915;50.826;4.356;2023-01-20T15:56:38;14.23;;;3.80;;
25627;SDS011;40915;50.826;4.356;2023-01-20T15:59:23;11.33;;;3.63;;
25627;SDS011;40915;50.826;4.356;2023-01-20T16:01:49;9.10;;;4.07;;
25627;SDS011;40915;50.826;4.356;2023-01-20T16:04:15;15.63;;;4.73;;
25627;SDS011;40915;50.826;4.356;2023-01-20T16:06:41;10.83;;;4.13;;
25627;SDS011;40915;50.826;4.356;2023-01-20T16:09:19;23.63;;;4.43;;
25627;SDS011;40915;50.826;4.356;2023-01-20T16:11:49;16.60;;;3.90;;
25627;SDS011;40915;50.826;4.356;2023-01-20T16:14:15;8.70;;;3.60;;
25627;SDS011;40915;50.826;4.356;2023-01-20T16:16:40;13.20;;;3.40;;
25627;SDS011;40915;50.826;4.356;2023-01-20T16:19:06;10.67;;;4.07;;
25627;SDS011;40915;50.826;4.356;2023-01-20T16:21:36;11.53;;;4.00;;
25627;SDS011;40915;50.826;4.356;2023-01-20T16:24:02;10.73;;;3.93;;
25627;SDS011;40915;50.826;4.356;2023-01-20T16:26:27;15.23;;;4.53;;
25627;SDS011;40915;50.826;4.356;2023-01-20T16:28:56;12.27;;;4.00;;
25627;SDS011;40915;50.826;4.356;2023-01-20T16:31:22;10.73;;;4.63;;
25627;SDS011;40915;50.826;4.356;2023-01-20T16:33:49;12.50;;;4.53;;
25627;SDS011;40915;50.826;4.356;2023-01-20T16:36:17;15.20;;;4.10;;
25627;SDS011;40915;50.826;4.356;2023-01-20T16:38:44;15.90;;;3.60;;
25627;SDS011;40915;50.826;4.356;2023-01-20T16:41:23;10.30;;;4.97;;
25627;SDS011;40915;50.826;4.356;2023-01-20T16:43:54;14.90;;;4.80;;
25627;SDS011;40915;50.826;4.356;2023-01-20T16:46:25;14.80;;;4.47;;
25627;SDS011;40915;50.826;4.356;2023-01-20T16:48:52;12.13;;;3.50;;